sensor_id;sensor_type;location;lat;lon;timestamp;P1;durP1;ratioP1;P2;durP2;ratioP2
16813;SDS011;8524;57.650;11.926;2023-02-15T00:02:00;18.13;;;12.63;;
16813;SDS011;8524;57.650;11.926;2023-02-15T00:04:28;17.17;;;12.37;;
16813;SDS011;8524;57.650;11.926;2023-02-15T00:07:11;19.93;;;13.03;;
16813;SDS011;8524;57.650;11.926;2023-02-15T00:09:40;16.90;;;12.90;;
16813;SDS011;8524;57.650;11.926;2023-02-15T00:12:08;18.37;;;12.37;;
16813;SDS011;8524;57.650;11.926;2023-02-15T00:14:36;18.80;;;13.50;;
16813;SDS011;8524;57.650;11.926;2023-02-15T00:17:03;19.13;;;13.27;;
16813;SDS011;8524;57.650;11.926;2023-02-15T00:19:30;16.73;;;12.23;;
16813;SDS011;8524;57.650;11.926;2023-02-15T00:21:57;20.43;;;13.03;;
16813;SDS011;8524;57.650;11.926;2023-02-15T00:24:25;19.53;;;12.50;;
16813;SDS011;8524;57.650;11.926;2023-02-15T00:26:52;20.07;;;13.27;;
16813;SDS011;8524;57.650;11.926;2023-02-15T00:29:21;17.58;;;14.18;;
16813;SDS011;8524;57.650;11.926;2023-02-15T00:31:48;16.90;;;12.73;;
16813;SDS011;8524;57.650;11.926;2023-02-15T00:34:16;18.17;;;13.30;;
16813;SDS011;8524;57.650;11.926;2023-02-15T00:36:45;19.73;;;12.43;;
16813;SDS011;8524;57.650;11.926;2023-02-15T00:39:12;17.90;;;13.17;;
16813;SDS011;8524;57.650;11.926;2023-02-15T00:41:40;19.50;;;14.00;;
16813;SDS011;8524;57.650;11.926;2023-02-15T00:44:07;19.50;;;13.73;;
16813;SDS011;8524;57.650;11.926;2023-02-15T00:46:36;19.43;;;13.93;;
16813;SDS011;8524;57.650;11.926;2023-02-15T00:49:03;21.47;;;14.90;;
16813;SDS011;8524;57.650;11.926;2023-02-15T00:51:30;22.07;;;14.43;;
16813;SDS011;8524;57.650;11.926;2023-02-15T00:53:58;21.43;;;14.73;;
16813;SDS011;8524;57.650;11.926;2023-02-15T00:56:25;22.73;;;13.87;;
16813;SDS011;8524;57.650;11.926;2023-02-15T00:58:53;19.03;;;13.57;;
16813;SDS011;8524;57.650;11.926;2023-02-15T01:01:20;21.27;;;14.43;;
16813;SDS011;8524;57.650;11.926;2023-02-15T01:03:49;18.90;;;13.17;;
16813;SDS011;8524;57.650;11.926;2023-02-15T01:06:17;17.67;;;12.50;;
16813;SDS011;8524;57.650;11.926;2023-02-15T01:08:44;19.73;;;13.63;;
16813;SDS011;8524;57.650;11.926;2023-02-15T01:11:12;19.37;;;14.10;;
16813;SDS011;8524;57.650;11.926;2023-02-15T01:13:46;19.83;;;13.70;;
16813;SDS011;8524;57.650;11.926;2023-02-15T01:16:15;21.83;;;15.30;;
16813;SDS011;8524;57.650;11.926;2023-02-15T01:18:42;22.13;;;15.53;;
16813;SDS011;8524;57.650;11.926;2023-02-15T01:21:11;20.60;;;14.67;;
16813;SDS011;8524;57.650;11.926;2023-02-15T01:23:40;19.10;;;13.93;;
16813;SDS011;8524;57.650;11.926;2023-02-15T01:26:08;22.90;;;15.07;;
16813;SDS011;8524;57.650;11.926;2023-02-15T01:28:35;20.43;;;14.50;;
16813;SDS011;8524;57.650;11.926;2023-02-15T01:31:06;20.80;;;15.07;;
16813;SDS011;8524;57.650;11.926;2023-02-15T01:33:34;21.17;;;14.40;;
16813;SDS011;8524;57.650;11.926;2023-02-15T01:36:02;21.07;;;14.53;;
16813;SDS011;8524;57.650;11.926;2023-02-15T01:38:31;17.17;;;13.10;;
16813;SDS011;8524;57.650;11.926;2023-02-15T01:40:59;21.07;;;14.63;;
16813;SDS011;8524;57.650;11.926;2023-02-15T01:43:40;19.80;;;14.27;;
16813;SDS011;8524;57.650;11.926;2023-02-15T01:46:08;19.73;;;13.90;;
16813;SDS011;8524;57.650;11.926;2023-02-15T01:48:38;18.80;;;13.63;;
16813;SDS011;8524;57.650;11.926;2023-02-15T01:51:10;19.27;;;14.07;;
16813;SDS011;8524;57.650;11.926;2023-02-15T01:53:40;17.67;;;13.43;;
16813;SDS011;8524;57.650;11.926;2023-02-15T01:56:09;19.57;;;13.63;;
16813;SDS011;8524;57.650;11.926;2023-02-15T01:58:40;18.27;;;13.13;;
16813;SDS011;8524;57.650;11.926;2023-02-15T02:01:08;17.60;;;13.87;;
16813;SDS011;8524;57.650;11.926;2023-02-15T02:03:42;17.97;;;13.67;;
16813;SDS011;8524;57.650;11.926;2023-02-15T02:06:16;18.27;;;13.73;;
16813;SDS011;8524;57.650;11.926;2023-02-15T02:08:45;19.20;;;13.40;;
16813;SDS011;8524;57.650;11.926;2023-02-15T02:11:12;19.37;;;13.60;;
16813;SDS011;8524;57.650;11.926;2023-02-15T02:13:41;19.90;;;13.77;;
16813;SDS011;8524;57.650;11.926;2023-02-15T02:16:10;17.97;;;12.40;;
16813;SDS011;8524;57.650;11.926;2023-02-15T02:18:44;21.87;;;14.33;;
16813;SDS011;8524;57.650;11.926;2023-02-15T02:21:29;18.23;;;13.27;;
16813;SDS011;8524;57.650;11.926;2023-02-15T02:24:27;19.60;;;13.23;;
16813;SDS011;8524;57.650;11.926;2023-02-15T02:27:17;23.73;;;14.00;;
16813;SDS011;8524;57.650;11.926;2023-02-15T02:33:14;19.57;;;14.00;;
16813;SDS011;8524;57.650;11.926;2023-02-15T02:35:56;19.13;;;13.90;;
16813;SDS011;8524;57.650;11.926;2023-02-15T02:38:32;22.27;;;15.67;;
16813;SDS011;8524;57.650;11.926;2023-02-15T02:41:09;23.87;;;16.00;;
16813;SDS011;8524;57.650;11.926;2023-02-15T02:43:47;23.00;;;15.90;;
16813;SDS011;8524;57.650;11.926;2023-02-15T02:46:19;21.23;;;15.03;;
16813;SDS011;8524;57.650;11.926;2023-02-15T02:48:52;21.77;;;15.00;;
16813;SDS011;8524;57.650;11.926;2023-02-15T02:51:20;23.97;;;16.27;;
16813;SDS011;8524;57.650;11.926;2023-02-15T02:53:48;21.43;;;14.43;;
16813;SDS011;8524;57.650;11.926;2023-02-15T02:56:19;21.53;;;15.47;;
16813;SDS011;8524;57.650;11.926;2023-02-15T02:58:51;22.70;;;16.13;;
16813;SDS011;8524;57.650;11.926;2023-02-15T03:01:27;25.17;;;17.17;;
16813;SDS011;8524;57.650;11.926;2023-02-15T03:04:00;23.97;;;15.87;;
16813;SDS011;8524;57.650;11.926;2023-02-15T03:06:33;24.70;;;16.37;;
16813;SDS011;8524;57.650;11.926;2023-02-15T03:09:06;20.67;;;15.27;;
16813;SDS011;8524;57.650;11.926;2023-02-15T03:11:39;22.90;;;16.07;;
16813;SDS011;8524;57.650;11.926;2023-02-15T03:14:09;20.33;;;14.43;;
16813;SDS011;8524;57.650;11.926;2023-02-15T03:16:37;23.13;;;14.77;;
16813;SDS011;8524;57.650;11.926;2023-02-15T03:19:07;22.73;;;15.67;;
16813;SDS011;8524;57.650;11.926;2023-02-15T03:21:37;22.17;;;15.50;;
16813;SDS011;8524;57.650;11.926;2023-02-15T03:24:09;23.60;;;16.20;;
16813;SDS011;8524;57.650;11.926;2023-02-15T03:26:39;24.13;;;16.80;;
16813;SDS011;8524;57.650;11.926;2023-02-15T03:29:11;27.27;;;17.27;;
16813;SDS011;8524;57.650;11.926;2023-02-15T03:31:40;24.73;;;17.23;;
16813;SDS011;8524;57.650;11.926;2023-02-15T03:34:11;23.73;;;16.73;;
16813;SDS011;8524;57.650;11.926;2023-02-15T03:36:43;24.83;;;17.30;;
16813;SDS011;8524;57.650;11.926;2023-02-15T03:39:16;23.47;;;16.07;;
16813;SDS011;8524;57.650;11.926;2023-02-15T03:41:48;25.17;;;18.13;;
16813;SDS011;8524;57.650;11.926;2023-02-15T03:44:23;23.33;;;16.33;;
16813;SDS011;8524;57.650;11.926;2023-02-15T03:46:55;24.43;;;16.93;;
16813;SDS011;8524;57.650;11.926;2023-02-15T03:49:29;24.73;;;16.87;;
16813;SDS011;8524;57.650;11.926;2023-02-15T03:52:03;26.87;;;17.37;;
16813;SDS011;8524;57.650;11.926;2023-02-15T03:54:31;23.83;;;17.00;;
16813;SDS011;8524;57.650;11.926;2023-02-15T03:57:13;23.63;;;16.90;;
16813;SDS011;8524;57.650;11.926;2023-02-15T03:59:59;25.80;;;17.37;;
16813;SDS011;8524;57.650;11.926;2023-02-15T04:02:57;28.33;;;18.57;;
16813;SDS011;8524;57.650;11.926;2023-02-15T04:05:42;28.00;;;17.97;;
16813;SDS011;8524;57.650;11.926;2023-02-15T04:08:10;29.70;;;19.60;;
16813;SDS011;8524;57.650;11.926;2023-02-15T04:10:38;24.20;;;16.37;;
16813;SDS011;8524;57.650;11.926;2023-02-15T04:13:21;26.97;;;17.00;;
16813;SDS011;8524;57.650;11.926;2023-02-15T04:15:49;26.00;;;17.80;;
16813;SDS011;8524;57.650;11.926;2023-02-15T04:18:31;26.73;;;17.67;;
16813;SDS011;8524;57.650;11.926;2023-02-15T04:21:17;24.93;;;17.20;;
16813;SDS011;8524;57.650;11.926;2023-02-15T04:24:03;25.13;;;17.20;;
16813;SDS011;8524;57.650;11.926;2023-02-15T04:26:48;28.97;;;18.20;;
16813;SDS011;8524;57.650;11.926;2023-02-15T04:29:19;30.40;;;19.20;;
16813;SDS011;8524;57.650;11.926;2023-02-15T04:31:47;29.50;;;18.43;;
16813;SDS011;8524;57.650;11.926;2023-02-15T04:34:14;28.20;;;18.03;;
16813;SDS011;8524;57.650;11.926;2023-02-15T04:36:43;29.43;;;18.73;;
16813;SDS011;8524;57.650;11.926;2023-02-15T04:39:11;27.10;;;18.17;;
16813;SDS011;8524;57.650;11.926;2023-02-15T04:41:39;28.03;;;17.73;;
16813;SDS011;8524;57.650;11.926;2023-02-15T04:44:06;30.23;;;18.10;;
16813;SDS011;8524;57.650;11.926;2023-02-15T04:46:33;26.03;;;17.17;;
16813;SDS011;8524;57.650;11.926;2023-02-15T04:49:00;26.77;;;18.63;;
16813;SDS011;8524;57.650;11.926;2023-02-15T04:51:27;31.00;;;20.07;;
16813;SDS011;8524;57.650;11.926;2023-02-15T04:53:56;30.70;;;19.13;;
16813;SDS011;8524;57.650;11.926;2023-02-15T04:56:23;24.77;;;16.37;;
16813;SDS011;8524;57.650;11.926;2023-02-15T04:58:50;28.17;;;18.37;;
16813;SDS011;8524;57.650;11.926;2023-02-15T05:01:17;29.27;;;20.13;;
16813;SDS011;8524;57.650;11.926;2023-02-15T05:03:44;29.47;;;19.37;;
16813;SDS011;8524;57.650;11.926;2023-02-15T05:06:11;27.13;;;17.87;;
16813;SDS011;8524;57.650;11.926;2023-02-15T05:08:38;29.73;;;18.60;;
16813;SDS011;8524;57.650;11.926;2023-02-15T05:11:07;32.03;;;19.63;;
16813;SDS011;8524;57.650;11.926;2023-02-15T05:13:34;27.83;;;18.43;;
16813;SDS011;8524;57.650;11.926;2023-02-15T05:16:01;30.50;;;19.33;;
16813;SDS011;8524;57.650;11.926;2023-02-15T05:18:28;29.97;;;19.43;;
16813;SDS011;8524;57.650;11.926;2023-02-15T05:20:55;29.37;;;19.47;;
16813;SDS011;8524;57.650;11.926;2023-02-15T05:23:22;30.07;;;19.03;;
16813;SDS011;8524;57.650;11.926;2023-02-15T05:25:49;28.33;;;18.33;;
16813;SDS011;8524;57.650;11.926;2023-02-15T05:28:36;27.93;;;17.30;;
16813;SDS011;8524;57.650;11.926;2023-02-15T05:31:04;25.57;;;17.17;;
16813;SDS011;8524;57.650;11.926;2023-02-15T05:33:33;28.43;;;19.80;;
16813;SDS011;8524;57.650;11.926;2023-02-15T05:36:01;28.77;;;19.30;;
16813;SDS011;8524;57.650;11.926;2023-02-15T05:38:29;29.07;;;18.67;;
16813;SDS011;8524;57.650;11.926;2023-02-15T05:40:56;24.77;;;16.57;;
16813;SDS011;8524;57.650;11.926;2023-02-15T05:43:24;25.97;;;18.00;;
16813;SDS011;8524;57.650;11.926;2023-02-15T05:45:53;25.57;;;18.27;;
16813;SDS011;8524;57.650;11.926;2023-02-15T05:48:22;25.93;;;17.17;;
16813;SDS011;8524;57.650;11.926;2023-02-15T05:50:56;28.83;;;18.50;;
16813;SDS011;8524;57.650;11.926;2023-02-15T05:53:24;28.33;;;17.33;;
16813;SDS011;8524;57.650;11.926;2023-02-15T05:55:51;24.03;;;17.03;;
16813;SDS011;8524;57.650;11.926;2023-02-15T05:58:19;25.70;;;16.83;;
16813;SDS011;8524;57.650;11.926;2023-02-15T06:00:46;25.37;;;17.07;;
16813;SDS011;8524;57.650;11.926;2023-02-15T06:03:14;26.03;;;17.47;;
16813;SDS011;8524;57.650;11.926;2023-02-15T06:05:41;28.60;;;18.50;;
16813;SDS011;8524;57.650;11.926;2023-02-15T06:08:08;30.67;;;20.40;;
16813;SDS011;8524;57.650;11.926;2023-02-15T06:10:35;24.07;;;17.23;;
16813;SDS011;8524;57.650;11.926;2023-02-15T06:13:02;25.63;;;17.13;;
16813;SDS011;8524;57.650;11.926;2023-02-15T06:15:29;28.17;;;17.83;;
16813;SDS011;8524;57.650;11.926;2023-02-15T06:17:56;25.77;;;16.73;;
16813;SDS011;8524;57.650;11.926;2023-02-15T06:20:25;28.80;;;18.17;;
16813;SDS011;8524;57.650;11.926;2023-02-15T06:22:52;27.07;;;17.43;;
16813;SDS011;8524;57.650;11.926;2023-02-15T06:25:19;25.23;;;17.10;;
16813;SDS011;8524;57.650;11.926;2023-02-15T06:27:46;23.97;;;16.53;;
16813;SDS011;8524;57.650;11.926;2023-02-15T06:30:14;25.67;;;17.80;;
16813;SDS011;8524;57.650;11.926;2023-02-15T06:32:41;24.40;;;17.27;;
16813;SDS011;8524;57.650;11.926;2023-02-15T06:35:08;23.57;;;17.13;;
16813;SDS011;8524;57.650;11.926;2023-02-15T06:37:37;23.77;;;17.23;;
16813;SDS011;8524;57.650;11.926;2023-02-15T06:40:05;26.77;;;17.27;;
16813;SDS011;8524;57.650;11.926;2023-02-15T06:42:33;22.37;;;16.50;;
16813;SDS011;8524;57.650;11.926;2023-02-15T06:45:00;24.10;;;16.33;;
16813;SDS011;8524;57.650;11.926;2023-02-15T06:47:27;26.40;;;18.90;;
16813;SDS011;8524;57.650;11.926;2023-02-15T06:49:54;21.87;;;16.63;;
16813;SDS011;8524;57.650;11.926;2023-02-15T06:52:21;22.07;;;16.60;;
16813;SDS011;8524;57.650;11.926;2023-02-15T06:54:49;24.87;;;16.87;;
16813;SDS011;8524;57.650;11.926;2023-02-15T06:57:16;25.20;;;17.10;;
16813;SDS011;8524;57.650;11.926;2023-02-15T06:59:43;24.30;;;16.73;;
16813;SDS011;8524;57.650;11.926;2023-02-15T07:02:10;24.17;;;16.90;;
16813;SDS011;8524;57.650;11.926;2023-02-15T07:04:38;24.27;;;16.50;;
16813;SDS011;8524;57.650;11.926;2023-02-15T07:07:07;25.07;;;16.97;;
16813;SDS011;8524;57.650;11.926;2023-02-15T07:09:35;23.27;;;16.37;;
16813;SDS011;8524;57.650;11.926;2023-02-15T07:12:04;24.87;;;17.20;;
16813;SDS011;8524;57.650;11.926;2023-02-15T07:14:48;26.40;;;15.77;;
16813;SDS011;8524;57.650;11.926;2023-02-15T07:17:15;26.37;;;17.40;;
16813;SDS011;8524;57.650;11.926;2023-02-15T07:19:43;26.33;;;17.50;;
16813;SDS011;8524;57.650;11.926;2023-02-15T07:22:10;26.07;;;18.30;;
16813;SDS011;8524;57.650;11.926;2023-02-15T07:24:37;26.13;;;18.10;;
16813;SDS011;8524;57.650;11.926;2023-02-15T07:27:05;26.00;;;17.30;;
16813;SDS011;8524;57.650;11.926;2023-02-15T07:29:33;25.50;;;16.50;;
16813;SDS011;8524;57.650;11.926;2023-02-15T07:32:00;25.70;;;17.17;;
16813;SDS011;8524;57.650;11.926;2023-02-15T07:34:27;26.40;;;17.50;;
16813;SDS011;8524;57.650;11.926;2023-02-15T07:36:54;26.03;;;17.07;;
16813;SDS011;8524;57.650;11.926;2023-02-15T07:39:21;26.07;;;17.00;;
16813;SDS011;8524;57.650;11.926;2023-02-15T07:41:48;27.80;;;18.20;;
16813;SDS011;8524;57.650;11.926;2023-02-15T07:44:16;25.37;;;17.57;;
16813;SDS011;8524;57.650;11.926;2023-02-15T07:46:43;26.80;;;18.57;;
16813;SDS011;8524;57.650;11.926;2023-02-15T07:49:10;23.97;;;16.57;;
16813;SDS011;8524;57.650;11.926;2023-02-15T07:51:37;27.43;;;18.40;;
16813;SDS011;8524;57.650;11.926;2023-02-15T07:54:05;26.17;;;17.97;;
16813;SDS011;8524;57.650;11.926;2023-02-15T07:56:32;25.47;;;16.77;;
16813;SDS011;8524;57.650;11.926;2023-02-15T07:59:00;27.37;;;18.03;;
16813;SDS011;8524;57.650;11.926;2023-02-15T08:01:32;32.20;;;19.27;;
16813;SDS011;8524;57.650;11.926;2023-02-15T08:04:01;28.87;;;17.87;;
16813;SDS011;8524;57.650;11.926;2023-02-15T08:06:30;27.23;;;17.73;;
16813;SDS011;8524;57.650;11.926;2023-02-15T08:08:59;28.20;;;18.40;;
16813;SDS011;8524;57.650;11.926;2023-02-15T08:11:27;27.70;;;18.13;;
16813;SDS011;8524;57.650;11.926;2023-02-15T08:13:58;28.63;;;18.47;;
16813;SDS011;8524;57.650;11.926;2023-02-15T08:16:28;27.60;;;18.07;;
16813;SDS011;8524;57.650;11.926;2023-02-15T08:18:59;30.57;;;19.23;;
16813;SDS011;8524;57.650;11.926;2023-02-15T08:21:28;27.07;;;17.60;;
16813;SDS011;8524;57.650;11.926;2023-02-15T08:23:56;27.57;;;18.90;;
16813;SDS011;8524;57.650;11.926;2023-02-15T08:26:24;29.40;;;18.77;;
16813;SDS011;8524;57.650;11.926;2023-02-15T08:28:53;29.93;;;19.47;;
16813;SDS011;8524;57.650;11.926;2023-02-15T08:31:20;29.27;;;19.43;;
16813;SDS011;8524;57.650;11.926;2023-02-15T08:33:50;27.43;;;18.30;;
16813;SDS011;8524;57.650;11.926;2023-02-15T08:36:19;26.70;;;17.90;;
16813;SDS011;8524;57.650;11.926;2023-02-15T08:38:47;29.97;;;18.97;;
16813;SDS011;8524;57.650;11.926;2023-02-15T08:41:16;29.23;;;18.30;;
16813;SDS011;8524;57.650;11.926;2023-02-15T08:43:45;29.67;;;18.73;;
16813;SDS011;8524;57.650;11.926;2023-02-15T08:46:14;28.87;;;18.33;;
16813;SDS011;8524;57.650;11.926;2023-02-15T08:48:42;26.73;;;17.47;;
16813;SDS011;8524;57.650;11.926;2023-02-15T08:51:12;27.30;;;17.07;;
16813;SDS011;8524;57.650;11.926;2023-02-15T08:53:41;28.63;;;18.33;;
16813;SDS011;8524;57.650;11.926;2023-02-15T08:56:10;25.47;;;17.27;;
16813;SDS011;8524;57.650;11.926;2023-02-15T08:58:37;27.53;;;17.67;;
16813;SDS011;8524;57.650;11.926;2023-02-15T09:01:08;27.17;;;17.20;;
16813;SDS011;8524;57.650;11.926;2023-02-15T09:03:36;30.50;;;18.07;;
16813;SDS011;8524;57.650;11.926;2023-02-15T09:06:03;25.70;;;16.97;;
16813;SDS011;8524;57.650;11.926;2023-02-15T09:08:32;27.30;;;17.53;;
16813;SDS011;8524;57.650;11.926;2023-02-15T09:11:06;26.43;;;18.07;;
16813;SDS011;8524;57.650;11.926;2023-02-15T09:13:34;26.40;;;16.90;;
16813;SDS011;8524;57.650;11.926;2023-02-15T09:16:02;29.27;;;18.03;;
16813;SDS011;8524;57.650;11.926;2023-02-15T09:18:30;27.43;;;17.77;;
16813;SDS011;8524;57.650;11.926;2023-02-15T09:21:04;27.00;;;17.73;;
16813;SDS011;8524;57.650;11.926;2023-02-15T09:23:34;24.50;;;17.23;;
16813;SDS011;8524;57.650;11.926;2023-02-15T09:26:02;25.93;;;17.60;;
16813;SDS011;8524;57.650;11.926;2023-02-15T09:28:31;27.73;;;18.97;;
16813;SDS011;8524;57.650;11.926;2023-02-15T09:31:04;27.90;;;19.03;;
16813;SDS011;8524;57.650;11.926;2023-02-15T09:33:35;24.20;;;16.73;;
16813;SDS011;8524;57.650;11.926;2023-02-15T09:36:04;26.73;;;17.50;;
16813;SDS011;8524;57.650;11.926;2023-02-15T09:38:33;27.83;;;18.50;;
16813;SDS011;8524;57.650;11.926;2023-02-15T09:41:07;28.10;;;18.80;;
16813;SDS011;8524;57.650;11.926;2023-02-15T09:43:42;30.20;;;19.30;;
16813;SDS011;8524;57.650;11.926;2023-02-15T09:46:22;25.67;;;17.77;;
16813;SDS011;8524;57.650;11.926;2023-02-15T09:49:01;29.97;;;18.97;;
16813;SDS011;8524;57.650;11.926;2023-02-15T09:51:47;26.43;;;18.13;;
16813;SDS011;8524;57.650;11.926;2023-02-15T09:54:35;26.40;;;17.80;;
16813;SDS011;8524;57.650;11.926;2023-02-15T09:57:13;28.87;;;18.80;;
16813;SDS011;8524;57.650;11.926;2023-02-15T09:59:48;25.60;;;17.47;;
16813;SDS011;8524;57.650;11.926;2023-02-15T10:02:26;27.27;;;18.53;;
16813;SDS011;8524;57.650;11.926;2023-02-15T10:05:07;27.30;;;20.17;;
16813;SDS011;8524;57.650;11.926;2023-02-15T10:10:51;26.63;;;18.97;;
16813;SDS011;8524;57.650;11.926;2023-02-15T10:13:45;23.97;;;17.53;;
16813;SDS011;8524;57.650;11.926;2023-02-15T10:16:25;24.77;;;18.73;;
16813;SDS011;8524;57.650;11.926;2023-02-15T10:19:02;25.13;;;17.33;;
16813;SDS011;8524;57.650;11.926;2023-02-15T10:21:37;22.93;;;17.60;;
16813;SDS011;8524;57.650;11.926;2023-02-15T10:24:14;26.53;;;19.53;;
16813;SDS011;8524;57.650;11.926;2023-02-15T10:26:52;24.90;;;17.63;;
16813;SDS011;8524;57.650;11.926;2023-02-15T10:29:27;28.57;;;19.43;;
16813;SDS011;8524;57.650;11.926;2023-02-15T10:32:00;28.33;;;19.43;;
16813;SDS011;8524;57.650;11.926;2023-02-15T10:34:33;25.07;;;18.17;;
16813;SDS011;8524;57.650;11.926;2023-02-15T10:37:14;26.50;;;16.83;;
16813;SDS011;8524;57.650;11.926;2023-02-15T10:39:56;24.77;;;17.63;;
16813;SDS011;8524;57.650;11.926;2023-02-15T10:42:35;27.03;;;18.57;;
16813;SDS011;8524;57.650;11.926;2023-02-15T10:45:13;26.13;;;18.17;;
16813;SDS011;8524;57.650;11.926;2023-02-15T10:47:51;25.13;;;17.83;;
16813;SDS011;8524;57.650;11.926;2023-02-15T10:50:41;26.17;;;18.03;;
16813;SDS011;8524;57.650;11.926;2023-02-15T10:53:17;25.47;;;17.67;;
16813;SDS011;8524;57.650;11.926;2023-02-15T10:55:59;25.97;;;17.33;;
16813;SDS011;8524;57.650;11.926;2023-02-15T10:58:38;24.20;;;16.57;;
16813;SDS011;8524;57.650;11.926;2023-02-15T11:01:19;25.87;;;16.97;;
16813;SDS011;8524;57.650;11.926;2023-02-15T11:03:57;27.17;;;16.47;;
16813;SDS011;8524;57.650;11.926;2023-02-15T11:06:41;26.03;;;16.87;;
16813;SDS011;8524;57.650;11.926;2023-02-15T11:09:16;25.57;;;16.73;;
16813;SDS011;8524;57.650;11.926;2023-02-15T11:11:47;23.33;;;15.73;;
16813;SDS011;8524;57.650;11.926;2023-02-15T11:14:21;23.50;;;16.00;;
16813;SDS011;8524;57.650;11.926;2023-02-15T11:16:59;24.10;;;16.23;;
16813;SDS011;8524;57.650;11.926;2023-02-15T11:19:31;24.80;;;16.20;;
16813;SDS011;8524;57.650;11.926;2023-02-15T11:22:01;26.43;;;17.87;;
16813;SDS011;8524;57.650;11.926;2023-02-15T11:24:31;28.80;;;18.33;;
16813;SDS011;8524;57.650;11.926;2023-02-15T11:27:04;27.90;;;18.43;;
16813;SDS011;8524;57.650;11.926;2023-02-15T11:29:45;29.00;;;17.97;;
16813;SDS011;8524;57.650;11.926;2023-02-15T11:32:21;25.30;;;18.10;;
16813;SDS011;8524;57.650;11.926;2023-02-15T11:34:53;25.70;;;18.43;;
16813;SDS011;8524;57.650;11.926;2023-02-15T11:37:27;29.13;;;19.47;;
16813;SDS011;8524;57.650;11.926;2023-02-15T11:40:00;26.13;;;18.00;;
16813;SDS011;8524;57.650;11.926;2023-02-15T11:42:29;28.80;;;19.17;;
16813;SDS011;8524;57.650;11.926;2023-02-15T11:45:02;28.23;;;20.00;;
16813;SDS011;8524;57.650;11.926;2023-02-15T11:47:41;27.70;;;19.50;;
16813;SDS011;8524;57.650;11.926;2023-02-15T11:50:10;29.27;;;18.50;;
16813;SDS011;8524;57.650;11.926;2023-02-15T11:52:39;29.83;;;19.77;;
16813;SDS011;8524;57.650;11.926;2023-02-15T11:55:09;29.20;;;19.20;;
16813;SDS011;8524;57.650;11.926;2023-02-15T11:57:41;30.63;;;20.47;;
16813;SDS011;8524;57.650;11.926;2023-02-15T12:00:12;27.30;;;19.20;;
16813;SDS011;8524;57.650;11.926;2023-02-15T12:02:46;27.53;;;19.67;;
16813;SDS011;8524;57.650;11.926;2023-02-15T12:05:19;31.13;;;20.67;;
16813;SDS011;8524;57.650;11.926;2023-02-15T12:07:52;30.50;;;20.63;;
16813;SDS011;8524;57.650;11.926;2023-02-15T12:10:22;30.33;;;20.97;;
16813;SDS011;8524;57.650;11.926;2023-02-15T12:13:07;29.80;;;20.30;;
16813;SDS011;8524;57.650;11.926;2023-02-15T12:15:37;28.40;;;20.10;;
16813;SDS011;8524;57.650;11.926;2023-02-15T12:18:15;30.60;;;20.30;;
16813;SDS011;8524;57.650;11.926;2023-02-15T12:20:45;29.77;;;19.43;;
16813;SDS011;8524;57.650;11.926;2023-02-15T12:23:14;30.17;;;20.87;;
16813;SDS011;8524;57.650;11.926;2023-02-15T12:25:42;30.77;;;20.53;;
16813;SDS011;8524;57.650;11.926;2023-02-15T12:28:20;30.23;;;20.80;;
16813;SDS011;8524;57.650;11.926;2023-02-15T12:30:53;31.27;;;19.17;;
16813;SDS011;8524;57.650;11.926;2023-02-15T12:33:23;30.00;;;20.50;;
16813;SDS011;8524;57.650;11.926;2023-02-15T12:35:55;25.87;;;18.63;;
16813;SDS011;8524;57.650;11.926;2023-02-15T12:38:26;29.50;;;19.70;;
16813;SDS011;8524;57.650;11.926;2023-02-15T12:40:58;28.70;;;19.23;;
16813;SDS011;8524;57.650;11.926;2023-02-15T12:43:27;30.13;;;20.40;;
16813;SDS011;8524;57.650;11.926;2023-02-15T12:51:44;30.98;;;23.52;;
16813;SDS011;8524;57.650;11.926;2023-02-15T12:54:20;32.23;;;20.83;;
16813;SDS011;8524;57.650;11.926;2023-02-15T12:57:15;30.40;;;20.87;;
16813;SDS011;8524;57.650;11.926;2023-02-15T12:59:50;29.67;;;20.80;;
16813;SDS011;8524;57.650;11.926;2023-02-15T13:02:23;34.27;;;23.47;;
16813;SDS011;8524;57.650;11.926;2023-02-15T13:04:57;39.03;;;22.57;;
16813;SDS011;8524;57.650;11.926;2023-02-15T13:07:38;33.97;;;22.20;;
16813;SDS011;8524;57.650;11.926;2023-02-15T13:10:18;33.93;;;21.07;;
16813;SDS011;8524;57.650;11.926;2023-02-15T13:12:50;31.90;;;19.77;;
16813;SDS011;8524;57.650;11.926;2023-02-15T13:15:26;30.63;;;20.20;;
16813;SDS011;8524;57.650;11.926;2023-02-15T13:17:57;33.63;;;21.07;;
16813;SDS011;8524;57.650;11.926;2023-02-15T13:20:27;33.87;;;21.40;;
16813;SDS011;8524;57.650;11.926;2023-02-15T13:22:56;32.47;;;20.53;;
16813;SDS011;8524;57.650;11.926;2023-02-15T13:25:27;29.17;;;18.87;;
16813;SDS011;8524;57.650;11.926;2023-02-15T13:28:00;29.87;;;19.17;;
16813;SDS011;8524;57.650;11.926;2023-02-15T13:30:30;29.00;;;19.17;;
16813;SDS011;8524;57.650;11.926;2023-02-15T13:33:01;31.03;;;19.97;;
16813;SDS011;8524;57.650;11.926;2023-02-15T13:35:35;29.90;;;18.83;;
16813;SDS011;8524;57.650;11.926;2023-02-15T13:38:13;31.03;;;20.30;;
16813;SDS011;8524;57.650;11.926;2023-02-15T13:40:51;33.20;;;20.63;;
16813;SDS011;8524;57.650;11.926;2023-02-15T13:43:28;31.63;;;20.17;;
16813;SDS011;8524;57.650;11.926;2023-02-15T13:46:13;31.90;;;20.50;;
16813;SDS011;8524;57.650;11.926;2023-02-15T13:48:51;28.57;;;19.47;;
16813;SDS011;8524;57.650;11.926;2023-02-15T13:51:30;28.00;;;18.10;;
16813;SDS011;8524;57.650;11.926;2023-02-15T13:54:08;31.80;;;19.00;;
16813;SDS011;8524;57.650;11.926;2023-02-15T13:56:53;29.50;;;18.53;;
16813;SDS011;8524;57.650;11.926;2023-02-15T13:59:31;29.97;;;19.50;;
16813;SDS011;8524;57.650;11.926;2023-02-15T14:02:19;28.63;;;18.33;;
16813;SDS011;8524;57.650;11.926;2023-02-15T14:05:12;31.23;;;18.60;;
16813;SDS011;8524;57.650;11.926;2023-02-15T14:07:54;28.60;;;18.70;;
16813;SDS011;8524;57.650;11.926;2023-02-15T14:13:32;28.87;;;17.63;;
16813;SDS011;8524;57.650;11.926;2023-02-15T14:16:21;28.40;;;18.40;;
16813;SDS011;8524;57.650;11.926;2023-02-15T14:18:59;28.30;;;17.83;;
16813;SDS011;8524;57.650;11.926;2023-02-15T14:21:37;27.13;;;16.87;;
16813;SDS011;8524;57.650;11.926;2023-02-15T14:24:14;27.93;;;18.00;;
16813;SDS011;8524;57.650;11.926;2023-02-15T14:26:52;31.00;;;19.03;;
16813;SDS011;8524;57.650;11.926;2023-02-15T14:29:32;25.37;;;17.77;;
16813;SDS011;8524;57.650;11.926;2023-02-15T14:32:15;28.27;;;17.37;;
16813;SDS011;8524;57.650;11.926;2023-02-15T14:34:48;25.33;;;17.07;;
16813;SDS011;8524;57.650;11.926;2023-02-15T14:37:20;25.90;;;16.37;;
16813;SDS011;8524;57.650;11.926;2023-02-15T14:40:00;28.40;;;17.67;;
16813;SDS011;8524;57.650;11.926;2023-02-15T14:42:50;27.23;;;17.47;;
16813;SDS011;8524;57.650;11.926;2023-02-15T14:45:24;27.33;;;16.77;;
16813;SDS011;8524;57.650;11.926;2023-02-15T14:47:57;24.63;;;16.50;;
16813;SDS011;8524;57.650;11.926;2023-02-15T14:50:41;24.90;;;16.63;;
16813;SDS011;8524;57.650;11.926;2023-02-15T14:53:20;21.13;;;15.13;;
16813;SDS011;8524;57.650;11.926;2023-02-15T14:56:19;26.13;;;15.60;;
16813;SDS011;8524;57.650;11.926;2023-02-15T14:58:59;22.03;;;15.27;;
16813;SDS011;8524;57.650;11.926;2023-02-15T15:01:40;25.57;;;14.73;;
16813;SDS011;8524;57.650;11.926;2023-02-15T15:04:08;22.70;;;14.87;;
16813;SDS011;8524;57.650;11.926;2023-02-15T15:06:40;24.87;;;15.60;;